createdAt,value
2023-04-01T00:06:00.757Z,9.578595317725753
2023-04-01T00:13:53.410Z,10.25418060200669
2023-04-01T00:20:12.159Z,10.130434782608695
2023-04-01T00:26:31.228Z,10.959866220735785
2023-04-01T00:32:50.390Z,10.053511705685619
2023-04-01T00:39:09.623Z,10.240802675585284
2023-04-01T00:45:29.399Z,9.521739130434783
2023-04-01T00:51:48.006Z,10.0
2023-04-01T00:58:07.531Z,9.240802675585284
2023-04-01T01:05:48.904Z,8.535117056856187
2023-04-01T01:12:09.297Z,10.695652173913043
2023-04-01T01:18:28.341Z,10.214046822742475
2023-04-01T01:24:47.479Z,10.397993311036789
2023-04-01T01:44:24.884Z,9.528428093645484
2023-04-01T01:50:43.922Z,8.989966555183946
2023-04-01T01:57:04.013Z,9.939799331103679
2023-04-01T02:03:23.947Z,8.602006688963211
2023-04-01T02:09:43.273Z,9.25752508361204
2023-04-01T02:18:52.151Z,9.959866220735785
2023-04-01T02:31:00.776Z,10.732441471571907
2023-04-01T02:37:19.805Z,10.451505016722408
2023-04-01T02:48:45.255Z,10.946488294314381
2023-04-01T02:55:03.991Z,11.414715719063546
2023-04-01T03:01:22.861Z,9.638795986622073
2023-04-01T03:07:42.485Z,8.505016722408026
2023-04-01T03:16:46.471Z,8.678929765886288
2023-04-01T03:23:06.382Z,8.107023411371237
2023-04-01T03:29:25.695Z,7.749163879598663
2023-04-01T03:47:09.637Z,6.494983277591973
2023-04-01T03:53:28.459Z,6.1806020066889635
2023-04-01T03:59:47.745Z,5.207357859531773
2023-04-01T04:06:06.984Z,6.287625418060201
2023-04-01T04:12:26.314Z,5.20066889632107
2023-04-01T04:18:46.231Z,5.906354515050167
2023-04-01T04:25:07.717Z,5.946488294314381
2023-04-01T04:31:26.797Z,5.8762541806020065
2023-04-01T04:37:46.072Z,5.2207357859531776
2023-04-01T04:48:28.707Z,4.214046822742475
2023-04-01T04:54:48.388Z,5.063545150501672
2023-04-01T05:01:08.067Z,5.183946488294314
2023-04-01T05:16:47.039Z,4.210702341137123
2023-04-01T05:23:06.105Z,4.434782608695652
2023-04-01T05:33:21.366Z,4.45819397993311
2023-04-01T05:39:43.415Z,3.719063545150502
2023-04-01T05:46:05.373Z,3.42809364548495
2023-04-01T05:52:26.518Z,3.237458193979933
2023-04-01T05:58:47.955Z,2.9096989966555182
2023-04-01T06:12:15.017Z,4.040133779264214
2023-04-01T06:18:37.430Z,4.147157190635451
2023-04-01T06:25:51.858Z,3.919732441471572
2023-04-01T06:32:13.520Z,3.802675585284281
2023-04-01T06:40:59.172Z,2.3076923076923075
2023-04-01T06:47:20.757Z,2.7725752508361206
2023-04-01T06:53:42.099Z,2.588628762541806
2023-04-01T07:00:04.216Z,1.9030100334448161
2023-04-01T07:06:26.245Z,2.157190635451505
2023-04-01T07:12:47.986Z,1.648829431438127
2023-04-01T07:23:03.942Z,1.7023411371237458
2023-04-01T07:29:25.947Z,1.6989966555183946
2023-04-01T07:35:47.590Z,1.2976588628762542
2023-04-01T07:42:09.528Z,1.7892976588628762
2023-04-01T07:48:53.131Z,1.9063545150501673
2023-04-01T07:55:15.246Z,1.4581939799331103
2023-04-01T08:01:36.541Z,0.7859531772575251
2023-04-01T08:10:05.387Z,1.5919732441471572
2023-04-01T08:29:16.912Z,1.2173913043478262
2023-04-01T08:40:46.900Z,1.1538461538461537
2023-04-01T08:47:08.499Z,1.9431438127090301
2023-04-01T08:53:33.519Z,2.020066889632107
2023-04-01T08:59:54.930Z,1.4882943143812708
2023-04-01T09:10:10.332Z,0.8963210702341137
2023-04-01T09:16:32.046Z,2.177257525083612
2023-04-01T09:22:53.052Z,1.6153846153846154
2023-04-01T09:30:39.959Z,1.2408026755852843
2023-04-01T09:37:01.489Z,1.745819397993311
2023-04-01T09:43:23.517Z,1.3478260869565217
2023-04-01T09:49:45.655Z,1.140468227424749
2023-04-01T09:56:07.630Z,0.9765886287625418
2023-04-01T10:02:29.882Z,0.7224080267558528
2023-04-01T10:12:33.098Z,0.8294314381270903
2023-04-01T10:18:56.027Z,1.3879598662207357
2023-04-01T10:25:19.017Z,0.5719063545150501
2023-04-01T10:31:41.197Z,0.3076923076923077
2023-04-01T10:38:03.278Z,0.010033444816053512
2023-04-01T10:47:43.917Z,0.10367892976588629
2023-04-01T10:54:06.883Z,0.6822742474916388
2023-04-01T11:00:29.281Z,0.0
2023-04-01T11:06:51.385Z,0.0
2023-04-01T11:13:13.945Z,0.0
2023-04-01T11:19:35.507Z,0.05351170568561873
2023-04-01T11:25:57.832Z,0.08361204013377926
2023-04-01T11:32:19.675Z,0.5317725752508361
2023-04-01T11:38:41.793Z,0.8695652173913043
2023-04-01T11:45:03.306Z,0.04013377926421405
2023-04-01T11:58:46.389Z,0.09364548494983277
2023-04-01T12:05:08.494Z,0.043478260869565216
2023-04-01T12:11:29.990Z,0.2809364548494983
2023-04-01T12:17:52.178Z,0.40468227424749165
2023-04-01T12:24:14.461Z,0.6722408026755853
2023-04-01T12:35:14.016Z,0.6688963210702341
2023-04-01T12:41:36.456Z,0.7391304347826086
2023-04-01T12:47:58.534Z,0.43812709030100333
2023-04-01T12:58:42.222Z,0.9431438127090301
2023-04-01T13:05:03.671Z,0.5919732441471572
2023-04-01T13:11:25.288Z,0.44481605351170567
2023-04-01T13:17:46.969Z,0.7290969899665551
2023-04-01T13:24:08.577Z,0.32441471571906355
2023-04-01T13:30:30.492Z,0.43478260869565216
2023-04-01T13:40:42.791Z,0.7725752508361204
2023-04-01T13:47:06.740Z,0.30434782608695654
2023-04-01T13:53:27.811Z,0.6454849498327759
2023-04-01T13:59:49.653Z,0.29431438127090304
2023-04-01T14:07:05.148Z,0.10702341137123746
2023-04-01T14:13:27.658Z,0.2608695652173913
2023-04-01T14:19:50.182Z,0.568561872909699
2023-04-01T14:26:12.283Z,0.6488294314381271
2023-04-01T14:32:35.101Z,1.4849498327759196
2023-04-01T14:39:02.064Z,1.351170568561873
2023-04-01T14:45:23.923Z,0.725752508361204
2023-04-01T14:51:48.328Z,0.7692307692307693
2023-04-01T14:58:11.578Z,9.468227424749164
2023-04-01T15:04:34.627Z,13.531772575250836
2023-04-01T15:10:57.785Z,12.762541806020067
2023-04-01T15:17:20.372Z,4.839464882943144
2023-04-01T15:23:43.792Z,8.264214046822742
2023-04-01T15:34:18.400Z,8.79598662207358
2023-04-01T15:40:40.910Z,4.294314381270903
2023-04-01T15:52:16.759Z,6.247491638795987
2023-04-01T15:58:38.270Z,3.160535117056856
2023-04-01T16:04:59.627Z,5.595317725752508
2023-04-01T16:19:46.753Z,3.234113712374582
2023-04-01T16:28:02.076Z,5.270903010033445
2023-04-01T16:38:27.552Z,9.08695652173913
2023-04-01T16:44:49.653Z,7.929765886287625
2023-04-01T16:51:13.984Z,5.933110367892977
2023-04-01T16:57:36.508Z,4.217391304347826
2023-04-01T17:10:09.125Z,4.68561872909699
2023-04-01T17:16:31.015Z,5.545150501672241
2023-04-01T17:32:03.839Z,18.183946488294314
2023-04-01T17:38:22.713Z,26.010033444816052
2023-04-01T17:44:42.462Z,24.438127090301002
2023-04-01T17:51:29.301Z,17.725752508361204
2023-04-01T17:57:48.072Z,18.274247491638796
2023-04-01T18:04:09.623Z,13.525083612040135
2023-04-01T18:10:29.292Z,17.97993311036789
2023-04-01T18:19:55.915Z,37.07357859531773
2023-04-01T18:26:15.751Z,9.421404682274247
2023-04-01T18:32:35.406Z,9.622073578595318
2023-04-01T18:50:01.937Z,10.936454849498327
2023-04-01T19:01:55.425Z,14.909698996655518
2023-04-01T19:15:06.536Z,10.147157190635452
2023-04-01T19:21:25.653Z,11.404682274247492
2023-04-01T19:27:44.430Z,12.327759197324415
2023-04-01T19:39:44.480Z,13.37458193979933
2023-04-01T19:46:03.478Z,26.668896321070235
2023-04-01T19:52:24.605Z,14.387959866220736
2023-04-01T20:00:56.266Z,38.87959866220736
2023-04-01T20:07:15.483Z,61.575250836120404
2023-04-01T20:18:35.295Z,28.193979933110366
2023-04-01T20:24:53.994Z,17.63545150501672
2023-04-01T20:31:12.462Z,16.220735785953178
2023-04-01T20:37:31.381Z,10.963210702341136
2023-04-01T20:43:50.306Z,10.692307692307692
2023-04-01T20:56:12.668Z,8.852842809364548
2023-04-01T21:02:34.005Z,8.133779264214047
2023-04-01T21:20:14.293Z,11.063545150501673
2023-04-01T21:26:35.417Z,10.849498327759198
2023-04-01T21:32:54.012Z,10.397993311036789
2023-04-01T21:39:13.057Z,9.180602006688963
2023-04-01T21:45:31.535Z,9.468227424749164
2023-04-01T21:51:51.286Z,7.448160535117057
2023-04-01T22:00:14.728Z,7.173913043478261
2023-04-01T22:06:34.547Z,8.304347826086957
2023-04-01T22:13:52.454Z,5.929765886287625
2023-04-01T22:20:35.769Z,6.889632107023411
2023-04-01T22:26:55.334Z,5.454849498327759
2023-04-01T22:33:15.197Z,5.103678929765886
2023-04-01T22:39:34.462Z,5.802675585284281
2023-04-01T22:45:57.205Z,5.538461538461538
2023-04-01T22:52:16.485Z,3.9732441471571907
2023-04-01T22:59:37.453Z,4.816053511705686
2023-04-01T23:05:56.392Z,4.153846153846154
2023-04-01T23:12:14.848Z,3.903010033444816
2023-04-01T23:18:33.856Z,3.8461538461538463
2023-04-01T23:27:53.770Z,3.6020066889632107
2023-04-01T23:34:12.481Z,4.364548494983278
2023-04-01T23:42:31.548Z,4.046822742474917
2023-04-01T23:48:50.080Z,2.903010033444816
2023-04-01T23:57:05.692Z,2.140468227424749
